Time;durP1;ratioP1;P1;durP2;ratioP2;P2;SDS_P1;SDS_P2;PMS_P1;PMS_P2;Temp;Humidity;BMP_temperature;BMP_pressure;BME280_temperature;BME280_humidity;BME280_pressure;Samples;Min_cycle;Max_cycle;Signal;HPM_P1;HPM_P2
2021/08/17 00:00:51;;;;;;;15.00;2.40;;;;;;;13.67;87.86;100547.56;10164507;28;20046;-67
2021/08/17 00:05:48;;;;;;;13.27;1.80;;;;;;;13.72;87.99;100548.50;10192809;28;20527;-67
2021/08/17 00:10:44;;;;;;;10.77;2.50;;;;;;;13.71;86.78;100549.63;10198581;28;20558;-67
2021/08/17 00:15:40;;;;;;;11.00;2.13;;;;;;;13.74;86.06;100547.00;10187957;28;20046;-67
2021/08/17 00:20:37;;;;;;;14.60;2.00;;;;;;;13.77;85.96;100551.00;10196325;28;20050;-67
2021/08/17 00:25:35;;;;;;;16.52;2.10;;;;;;;13.75;85.88;100564.28;10191887;28;20129;-67
2021/08/17 00:30:32;;;;;;;15.68;2.53;;;;;;;13.75;85.92;100569.78;10194098;28;20070;-67
2021/08/17 00:35:28;;;;;;;11.27;1.77;;;;;;;13.78;85.94;100583.63;10176197;28;20566;-67
2021/08/17 00:40:25;;;;;;;15.20;2.92;;;;;;;13.79;85.47;100570.69;10159584;28;20598;-67
2021/08/17 00:45:27;;;;;;;17.50;2.50;;;;;;;13.80;85.83;100575.03;10188871;28;20074;-67
2021/08/17 00:50:25;;;;;;;45.13;3.22;;;;;;;13.82;85.72;100575.50;10165662;28;20486;-68
2021/08/17 00:55:22;;;;;;;13.82;1.88;;;;;;;13.83;86.12;100571.59;10182238;28;20046;-68
2021/08/17 01:00:19;;;;;;;22.60;2.78;;;;;;;13.84;86.51;100578.72;10186648;28;20476;-68
2021/08/17 01:05:21;;;;;;;16.52;3.03;;;;;;;13.85;86.85;100572.06;10191372;28;20499;-67
2021/08/17 01:10:18;;;;;;;18.07;2.90;;;;;;;13.84;87.28;100587.75;10194390;28;20054;-67
2021/08/17 01:15:15;;;;;;;16.92;2.58;;;;;;;13.86;86.88;100587.41;10182081;28;20149;-67
2021/08/17 01:20:14;;;;;;;17.02;2.20;;;;;;;13.89;86.77;100589.47;10185656;28;20054;-68
2021/08/17 01:25:11;;;;;;;16.17;2.05;;;;;;;13.92;86.87;100601.72;10179239;28;20053;-68
2021/08/17 01:30:10;;;;;;;12.52;1.83;;;;;;;13.92;86.47;100602.53;10181421;28;20042;-67
2021/08/17 01:35:07;;;;;;;9.40;1.88;;;;;;;13.91;85.95;100594.63;10178216;28;20089;-67
2021/08/17 01:40:07;;;;;;;7.28;1.63;;;;;;;13.94;85.89;100605.72;10193611;28;20096;-68
2021/08/17 01:45:04;;;;;;;13.90;2.35;;;;;;;13.93;85.41;100614.34;10190614;28;20078;-68
2021/08/17 01:50:02;;;;;;;11.27;1.77;;;;;;;13.92;85.38;100619.00;10175700;28;20054;-68
2021/08/17 01:54:58;;;;;;;21.50;2.95;;;;;;;13.88;85.06;100629.09;10181740;28;20073;-67
2021/08/17 01:59:54;;;;;;;9.05;1.42;;;;;;;13.87;84.96;100638.47;10147133;28;20594;-68
2021/08/17 02:04:51;;;;;;;12.57;2.00;;;;;;;13.84;85.16;100648.22;10170955;28;20050;-67
2021/08/17 02:09:47;;;;;;;12.88;1.85;;;;;;;13.88;85.18;100670.34;10184444;28;20039;-67
2021/08/17 02:14:44;;;;;;;22.00;2.92;;;;;;;13.85;85.33;100668.25;10168656;28;20496;-67
2021/08/17 02:19:40;;;;;;;12.60;1.63;;;;;;;13.82;85.31;100663.44;10192755;28;20050;-67
2021/08/17 02:24:37;;;;;;;11.40;1.42;;;;;;;13.83;85.46;100654.88;10193815;28;20073;-67
2021/08/17 02:29:34;;;;;;;15.65;2.35;;;;;;;13.83;85.42;100678.78;10177866;28;20038;-67
2021/08/17 02:34:30;;;;;;;13.32;2.25;;;;;;;13.87;85.62;100680.50;10196096;28;20507;-67
2021/08/17 02:39:27;;;;;;;8.57;1.80;;;;;;;13.85;85.14;100676.50;10171973;28;20061;-66
2021/08/17 02:44:23;;;;;;;11.05;2.10;;;;;;;13.84;85.65;100683.16;10200407;28;20092;-67
2021/08/17 02:49:20;;;;;;;12.88;2.13;;;;;;;13.84;85.79;100683.16;10168187;28;20077;-67
2021/08/17 02:54:16;;;;;;;21.35;2.22;;;;;;;13.80;85.88;100671.22;10191423;28;20045;-66
2021/08/17 02:59:12;;;;;;;13.23;2.30;;;;;;;13.81;85.96;100678.34;10201488;28;20211;-67
2021/08/17 03:04:09;;;;;;;15.45;2.25;;;;;;;13.81;85.96;100683.84;10184350;28;20053;-67
2021/08/17 03:09:06;;;;;;;14.88;2.65;;;;;;;13.86;85.88;100680.84;10200758;28;20046;-66
2021/08/17 03:14:03;;;;;;;11.50;1.80;;;;;;;13.87;85.04;100688.75;10177507;28;20086;-66
2021/08/17 03:19:00;;;;;;;12.82;1.95;;;;;;;13.82;84.52;100690.91;10200602;28;20439;-66
2021/08/17 03:23:57;;;;;;;11.70;2.47;;;;;;;13.80;83.39;100698.69;10170698;28;20534;-63
2021/08/17 03:28:53;;;;;;;8.05;1.70;;;;;;;13.78;82.72;100706.47;10196586;28;20050;-66
2021/08/17 03:33:51;;;;;;;15.60;2.03;;;;;;;13.74;82.27;100722.84;10197221;28;20141;-66
2021/08/17 03:38:48;;;;;;;10.13;1.90;;;;;;;13.68;82.17;100718.72;10184339;28;20108;-66
2021/08/17 03:43:44;;;;;;;12.75;2.10;;;;;;;13.67;82.85;100720.66;10194567;28;20503;-67
2021/08/17 03:48:41;;;;;;;8.77;1.90;;;;;;;13.67;82.91;100728.91;10164995;28;20088;-67
2021/08/17 03:53:37;;;;;;;12.10;1.67;;;;;;;13.73;82.60;100714.94;10183790;28;20484;-67
2021/08/17 03:58:33;;;;;;;10.88;2.17;;;;;;;13.72;82.12;100724.34;10198509;28;20046;-67
2021/08/17 04:03:30;;;;;;;10.85;1.98;;;;;;;13.73;82.80;100731.44;10182091;28;20100;-68
2021/08/17 04:08:27;;;;;;;10.07;2.83;;;;;;;13.76;83.23;100733.50;10197905;28;20074;-67
2021/08/17 04:13:23;;;;;;;15.65;2.17;;;;;;;13.82;83.11;100734.91;10173040;28;20048;-67
2021/08/17 04:18:20;;;;;;;8.95;1.85;;;;;;;13.83;83.40;100731.00;10193019;28;20046;-68
2021/08/17 04:23:17;;;;;;;6.82;1.75;;;;;;;13.83;81.73;100736.47;10183933;28;20081;-68
2021/08/17 04:28:14;;;;;;;12.55;2.13;;;;;;;13.76;84.66;100774.72;10183364;28;20074;-68
2021/08/17 04:33:10;;;;;;;10.07;2.15;;;;;;;13.60;86.53;100756.13;10181629;28;20194;-68
2021/08/17 04:38:07;;;;;;;12.60;2.30;;;;;;;13.55;87.75;100761.78;10194083;28;20049;-68
2021/08/17 04:43:03;;;;;;;10.52;2.55;;;;;;;13.52;88.64;100753.44;10192924;28;20086;-66
2021/08/17 04:48:00;;;;;;;9.98;2.30;;;;;;;13.55;89.09;100764.53;10197086;28;20082;-66
2021/08/17 04:52:57;;;;;;;13.07;2.85;;;;;;;13.56;89.95;100757.94;10176264;28;20682;-66
2021/08/17 04:57:59;;;;;;;15.88;2.72;;;;;;;13.62;90.74;100773.06;10195297;28;20082;-67
2021/08/17 05:02:56;;;;;;;15.27;3.08;;;;;;;13.59;91.08;100765.47;10196060;28;20073;-66
2021/08/17 05:07:52;;;;;;;16.15;3.55;;;;;;;13.60;91.73;100794.56;10193892;28;20075;-67
2021/08/17 05:12:50;;;;;;;15.88;3.63;;;;;;;13.67;92.30;100789.34;10172705;28;20046;-67
2021/08/17 05:17:46;;;;;;;18.48;4.80;;;;;;;13.80;92.21;100803.13;10192216;28;20046;-68
2021/08/17 05:22:45;;;;;;;22.63;3.35;;;;;;;13.88;92.67;100799.50;10170191;28;20073;-68
2021/08/17 05:27:42;;;;;;;17.17;3.55;;;;;;;13.93;93.23;100799.28;10193817;28;20179;-67
2021/08/17 05:32:39;;;;;;;17.63;4.07;;;;;;;13.95;93.94;100805.25;10195900;28;20108;-67
2021/08/17 05:37:36;;;;;;;20.17;4.50;;;;;;;14.01;94.01;100819.56;10194143;28;20049;-68
2021/08/17 05:42:32;;;;;;;24.83;5.05;;;;;;;13.96;94.45;100804.09;10195687;28;20073;-68
2021/08/17 05:47:29;;;;;;;19.05;4.60;;;;;;;13.96;94.46;100809.59;10191878;28;20142;-68
2021/08/17 05:52:25;;;;;;;19.77;4.85;;;;;;;13.92;94.55;100811.41;10189877;28;20045;-67
2021/08/17 05:57:22;;;;;;;19.45;4.78;;;;;;;13.91;94.38;100804.31;10194554;28;20050;-68
2021/08/17 06:02:18;;;;;;;20.27;3.78;;;;;;;13.95;94.85;100809.94;10178863;28;20046;-68
2021/08/17 06:07:18;;;;;;;23.50;4.80;;;;;;;14.02;94.73;100822.00;10194493;28;20053;-68
2021/08/17 06:12:15;;;;;;;24.55;4.03;;;;;;;14.05;95.13;100826.81;10177960;28;20061;-67
2021/08/17 06:17:11;;;;;;;20.88;3.95;;;;;;;14.15;94.51;100819.28;10202124;28;20049;-67
2021/08/17 06:22:08;;;;;;;17.67;3.42;;;;;;;14.25;93.99;100819.66;10171076;28;20086;-67
2021/08/17 06:27:04;;;;;;;16.85;3.28;;;;;;;14.33;93.49;100828.94;10196709;28;20050;-67
2021/08/17 06:32:19;;;;;;;15.73;3.58;;;;;;;14.44;93.20;100827.38;10163417;28;20492;-67
2021/08/17 06:37:16;;;;;;;17.55;3.30;;;;;;;14.53;92.37;100841.03;10174466;28;20050;-67
2021/08/17 06:42:13;;;;;;;22.27;3.85;;;;;;;14.62;92.33;100843.69;10162066;28;20046;-67
2021/08/17 06:47:09;;;;;;;12.43;2.92;;;;;;;14.39;93.58;100852.34;10200277;28;20046;-67
2021/08/17 06:52:06;;;;;;;18.92;3.55;;;;;;;14.33;94.42;100831.69;10194396;28;20061;-67
2021/08/17 06:57:03;;;;;;;19.42;5.07;;;;;;;14.32;94.93;100846.59;10197708;28;20092;-67
2021/08/17 07:01:59;;;;;;;12.85;3.05;;;;;;;14.40;95.02;100847.66;10183576;28;20112;-68
2021/08/17 07:06:56;;;;;;;15.30;3.17;;;;;;;14.42;94.47;100840.66;10194547;28;20053;-67
2021/08/17 07:11:52;;;;;;;12.85;2.83;;;;;;;14.40;94.27;100848.44;10197712;28;20536;-67
2021/08/17 07:16:49;;;;;;;16.60;4.70;;;;;;;14.52;94.38;100862.22;10200042;28;20539;-67
2021/08/17 07:21:46;;;;;;;14.43;3.67;;;;;;;14.49;93.53;100846.41;10190797;28;20049;-67
2021/08/17 07:26:42;;;;;;;19.88;3.38;;;;;;;14.65;93.84;100832.03;10193026;28;20117;-67
2021/08/17 07:31:38;;;;;;;15.45;3.78;;;;;;;14.76;93.43;100835.94;10188840;28;20049;-67
2021/08/17 07:36:36;;;;;;;14.55;3.72;;;;;;;14.75;93.73;100841.78;10184499;28;20062;-67
2021/08/17 07:41:33;;;;;;;12.55;3.35;;;;;;;14.56;94.02;100839.56;10186012;28;20455;-68
2021/08/17 07:46:31;;;;;;;14.30;3.25;;;;;;;14.55;93.54;100859.97;10194453;28;20049;-67
2021/08/17 07:51:28;;;;;;;13.50;2.83;;;;;;;14.64;93.27;100849.66;10194610;28;20515;-67
2021/08/17 07:56:25;;;;;;;12.98;3.67;;;;;;;14.56;93.65;100845.88;10186054;28;20062;-67
2021/08/17 08:01:21;;;;;;;11.73;2.83;;;;;;;14.50;93.07;100859.03;10176708;28;20108;-68
2021/08/17 08:06:18;;;;;;;10.43;3.15;;;;;;;14.60;93.21;100846.00;10184666;28;20045;-68
2021/08/17 08:11:15;;;;;;;10.40;2.00;;;;;;;14.64;92.49;100864.22;10182820;28;20050;-67
2021/08/17 08:16:12;;;;;;;8.85;2.47;;;;;;;14.71;91.59;100863.66;10197825;28;20050;-67
2021/08/17 08:21:09;;;;;;;10.32;1.98;;;;;;;14.69;91.38;100874.19;10179611;28;20470;-67
2021/08/17 08:26:05;;;;;;;12.02;3.08;;;;;;;14.52;92.48;100873.22;10190377;28;20088;-67
2021/08/17 08:31:02;;;;;;;6.80;2.38;;;;;;;14.58;92.93;100881.31;10173729;28;20061;-67
2021/08/17 08:35:59;;;;;;;10.15;2.72;;;;;;;14.40;93.30;100886.97;10194814;28;20132;-67
2021/08/17 08:40:55;;;;;;;9.25;2.67;;;;;;;14.36;94.26;100886.03;10197923;28;20515;-67
2021/08/17 08:45:52;;;;;;;6.25;2.05;;;;;;;14.28;94.42;100892.44;10189967;28;20592;-67
2021/08/17 08:50:51;;;;;;;9.65;2.33;;;;;;;14.18;94.46;100901.09;10191003;28;20050;-67
2021/08/17 08:55:48;;;;;;;9.85;2.00;;;;;;;14.17;95.15;100910.50;10179097;28;20050;-67
2021/08/17 09:00:44;;;;;;;8.57;2.45;;;;;;;13.92;95.03;100907.63;10180946;28;20111;-66
2021/08/17 09:05:52;;;;;;;13.63;3.70;;;;;;;13.99;95.03;100915.31;10196288;28;20495;-67
2021/08/17 09:10:48;;;;;;;8.93;2.95;;;;;;;14.21;95.42;100906.72;10174362;28;20053;-67
2021/08/17 09:15:45;;;;;;;13.40;2.88;;;;;;;14.24;94.98;100917.03;10195493;28;20042;-67
2021/08/17 09:20:47;;;;;;;7.00;2.25;;;;;;;14.17;94.20;100921.50;10168565;28;20073;-67
2021/08/17 09:25:43;;;;;;;9.73;3.58;;;;;;;14.12;94.01;100927.19;10192310;28;20049;-67
2021/08/17 09:30:40;;;;;;;8.73;2.40;;;;;;;14.04;94.95;100935.19;10160546;28;20038;-67
2021/08/17 09:35:37;;;;;;;7.38;2.13;;;;;;;14.02;94.96;100926.47;10166528;28;20049;-67
2021/08/17 09:40:43;;;;;;;11.98;1.90;;;;;;;13.91;95.60;100938.19;10196034;28;20049;-67
2021/08/17 09:45:41;;;;;;;6.03;2.45;;;;;;;13.89;96.79;100933.03;10180528;28;20045;-67
2021/08/17 09:50:38;;;;;;;9.60;1.88;;;;;;;13.83;96.87;100945.34;10192243;28;20052;-67
2021/08/17 09:55:41;;;;;;;9.10;2.25;;;;;;;13.84;96.74;100936.78;10194727;28;20468;-68
2021/08/17 10:00:39;;;;;;;5.88;2.40;;;;;;;13.96;97.11;100927.78;10169095;28;20050;-67
2021/08/17 10:05:38;;;;;;;7.20;1.73;;;;;;;14.13;96.76;100915.84;10194445;28;20057;-67
2021/08/17 10:10:35;;;;;;;9.23;2.00;;;;;;;14.32;96.70;100923.63;10177976;28;20043;-67
2021/08/17 10:15:32;;;;;;;10.88;3.40;;;;;;;14.40;95.79;100919.97;10193115;28;20050;-67
2021/08/17 10:20:29;;;;;;;10.50;2.80;;;;;;;14.31;95.45;100919.25;10162045;28;20081;-67
2021/08/17 10:25:26;;;;;;;10.20;2.65;;;;;;;14.23;94.97;100911.91;10187683;28;21251;-67
2021/08/17 10:30:23;;;;;;;9.43;2.55;;;;;;;14.39;95.45;100928.56;10189491;28;20053;-67
2021/08/17 10:35:29;;;;;;;16.13;3.33;;;;;;;14.34;95.51;100940.56;10189095;28;20050;-67
2021/08/17 10:40:48;;;;;;;9.88;3.05;;;;;;;14.23;94.78;100928.41;10189151;28;20100;-67
2021/08/17 10:45:54;;;;;;;12.45;3.20;;;;;;;14.22;95.61;100918.53;10178288;28;20066;-67
2021/08/17 10:50:50;;;;;;;14.10;3.70;;;;;;;14.34;95.89;100924.06;10190189;28;20037;-67
2021/08/17 10:55:47;;;;;;;13.85;3.50;;;;;;;14.47;96.00;100925.72;10183003;28;20467;-67
2021/08/17 11:00:47;;;;;;;15.90;3.20;;;;;;;14.52;95.36;100933.75;10196134;28;20508;-67
2021/08/17 11:05:52;;;;;;;19.98;3.70;;;;;;;14.43;94.80;100946.78;10194272;28;20052;-67
2021/08/17 11:10:49;;;;;;;14.95;3.20;;;;;;;14.35;93.66;100950.44;10190928;28;20046;-67
2021/08/17 11:15:45;;;;;;;20.08;4.20;;;;;;;14.29;93.01;100962.78;10192467;28;20076;-67
2021/08/17 11:20:42;;;;;;;17.20;3.42;;;;;;;14.29;93.20;100980.09;10180792;28;20047;-67
2021/08/17 11:25:48;;;;;;;14.43;3.30;;;;;;;14.10;93.52;100983.31;10191495;28;20057;-67
2021/08/17 11:30:46;;;;;;;13.88;4.05;;;;;;;14.08;93.95;100984.78;10176138;28;20552;-67
2021/08/17 11:35:43;;;;;;;15.55;3.33;;;;;;;14.15;93.77;100985.06;10188259;28;20073;-67
2021/08/17 11:40:39;;;;;;;17.67;3.63;;;;;;;14.23;93.68;100997.16;10172090;28;20078;-67
2021/08/17 11:45:39;;;;;;;14.07;3.72;;;;;;;14.25;93.28;100984.66;10186192;28;20471;-67
2021/08/17 11:50:36;;;;;;;17.75;4.40;;;;;;;14.17;93.21;100990.22;10196009;28;20042;-67
2021/08/17 11:55:34;;;;;;;16.27;4.05;;;;;;;14.13;93.90;100987.34;10192431;28;20500;-67
2021/08/17 12:00:32;;;;;;;13.55;3.55;;;;;;;14.27;94.20;100976.06;10183051;28;20046;-67
2021/08/17 12:05:31;;;;;;;14.13;3.45;;;;;;;14.32;93.32;100984.13;10185184;28;20497;-67
2021/08/17 12:10:35;;;;;;;17.08;4.88;;;;;;;14.26;92.70;100979.97;10181428;28;20049;-67
2021/08/17 12:15:50;;;;;;;19.30;4.47;;;;;;;14.26;92.97;100979.97;10181338;28;20081;-67
2021/08/17 12:20:49;;;;;;;15.70;4.63;;;;;;;14.29;93.99;100984.78;10182342;28;20093;-67
2021/08/17 12:25:47;;;;;;;20.45;4.60;;;;;;;14.39;93.70;100989.91;10192357;28;20052;-68
2021/08/17 12:30:43;;;;;;;19.65;4.07;;;;;;;14.41;93.57;100987.63;10190850;28;20043;-67
2021/08/17 12:35:39;;;;;;;17.88;4.65;;;;;;;14.35;93.07;100993.66;10178963;28;20046;-67
2021/08/17 12:40:45;;;;;;;22.25;5.70;;;;;;;14.39;93.07;100989.91;10180841;28;20046;-67
2021/08/17 12:45:42;;;;;;;17.27;4.10;;;;;;;14.25;93.94;100994.84;10179035;28;20057;-67
2021/08/17 12:50:40;;;;;;;21.63;5.38;;;;;;;14.26;94.53;100999.22;10179460;28;20076;-67
2021/08/17 12:55:37;;;;;;;16.77;4.32;;;;;;;14.28;95.14;100999.69;10188547;28;20050;-68
2021/08/17 13:00:34;;;;;;;15.43;4.80;;;;;;;14.40;95.34;100988.75;10173796;28;20069;-68
2021/08/17 13:05:32;;;;;;;21.42;5.97;;;;;;;14.52;95.26;101001.75;10193579;28;20092;-68
2021/08/17 13:10:29;;;;;;;21.70;4.43;;;;;;;14.52;94.27;100999.78;10195114;28;20050;-68
2021/08/17 13:15:26;;;;;;;17.67;5.25;;;;;;;14.49;94.00;101003.22;10174398;28;20057;-67
2021/08/17 13:20:24;;;;;;;17.67;5.03;;;;;;;14.46;93.33;101006.66;10194034;28;20073;-67
2021/08/17 13:25:21;;;;;;;16.58;4.57;;;;;;;14.50;93.60;101004.84;10173849;28;20473;-67
2021/08/17 13:30:18;;;;;;;18.48;5.28;;;;;;;14.57;91.74;101007.06;10194558;28;20053;-67
2021/08/17 13:35:15;;;;;;;14.57;4.90;;;;;;;14.72;92.20;100997.38;10195323;28;20100;-67
2021/08/17 13:40:14;;;;;;;17.50;5.40;;;;;;;14.65;89.58;101002.63;10191608;28;20462;-68
2021/08/17 13:45:11;;;;;;;16.45;5.28;;;;;;;14.58;89.30;101000.44;10193935;28;20132;-67
2021/08/17 13:50:09;;;;;;;21.20;6.07;;;;;;;14.50;88.52;101001.28;10184913;28;20049;-68
2021/08/17 13:55:05;;;;;;;12.93;4.90;;;;;;;14.50;88.51;101015.84;10194675;28;20069;-67
2021/08/17 14:00:02;;;;;;;20.52;7.18;;;;;;;14.52;89.79;101032.81;10174661;28;20077;-67
2021/08/17 14:04:59;;;;;;;23.80;6.03;;;;;;;14.53;90.04;101028.94;10194413;28;20038;-66
2021/08/17 14:09:55;;;;;;;18.75;5.00;;;;;;;14.47;89.62;101023.97;10176024;28;20054;-66
2021/08/17 14:14:52;;;;;;;19.23;5.47;;;;;;;14.39;90.18;101028.41;10194024;28;20092;-66
2021/08/17 14:19:49;;;;;;;15.85;5.22;;;;;;;14.34;89.90;101031.34;10164164;28;20108;-68
2021/08/17 14:24:45;;;;;;;24.13;6.32;;;;;;;14.34;90.61;101039.59;10190582;28;20046;-66
2021/08/17 14:29:41;;;;;;;20.83;6.57;;;;;;;14.39;90.68;101039.41;10195441;28;20046;-66
2021/08/17 14:34:38;;;;;;;23.40;7.43;;;;;;;14.42;91.56;101046.97;10193846;28;20574;-67
2021/08/17 14:39:35;;;;;;;18.95;6.53;;;;;;;14.41;91.14;101056.38;10202059;28;20080;-67
2021/08/17 14:44:31;;;;;;;17.48;6.03;;;;;;;14.38;91.10;101057.03;10198176;28;20049;-67
2021/08/17 14:49:28;;;;;;;20.75;5.93;;;;;;;14.41;90.95;101061.88;10201720;28;20475;-67
2021/08/17 14:54:24;;;;;;;18.90;6.20;;;;;;;14.56;91.08;101043.97;10193991;28;20069;-67
2021/08/17 14:59:21;;;;;;;26.13;6.53;;;;;;;14.62;89.33;101036.31;10196167;28;20120;-67
2021/08/17 15:04:19;;;;;;;21.63;7.45;;;;;;;14.68;88.60;101038.53;10190999;28;20518;-67
2021/08/17 15:09:16;;;;;;;22.88;6.45;;;;;;;14.85;88.30;101034.81;10187998;28;20046;-67
2021/08/17 15:14:12;;;;;;;21.73;5.97;;;;;;;15.04;85.39;101030.72;10188342;28;20080;-67
2021/08/17 15:19:10;;;;;;;18.05;5.88;;;;;;;15.12;85.40;101033.38;10184511;28;20523;-67
2021/08/17 15:24:06;;;;;;;20.92;6.78;;;;;;;15.07;84.99;101035.56;10186085;28;20447;-67
2021/08/17 15:29:03;;;;;;;29.70;7.93;;;;;;;14.98;84.45;101043.13;10178048;28;20050;-67
2021/08/17 15:33:59;;;;;;;14.77;6.25;;;;;;;14.91;82.41;101052.72;10183384;28;20096;-67
2021/08/17 15:38:57;;;;;;;17.20;6.28;;;;;;;14.89;82.13;101052.25;10184206;28;20096;-67
2021/08/17 15:43:54;;;;;;;16.05;6.10;;;;;;;14.89;81.33;101041.25;10196821;28;20049;-67
2021/08/17 15:48:50;;;;;;;19.35;6.22;;;;;;;14.99;79.93;101051.00;10199284;28;20588;-67
2021/08/17 15:53:47;;;;;;;21.45;6.50;;;;;;;15.11;79.94;101053.81;10196629;28;20077;-67
2021/08/17 15:58:43;;;;;;;17.17;6.15;;;;;;;15.21;79.05;101058.09;10198812;28;20050;-66
2021/08/17 16:03:40;;;;;;;15.30;5.68;;;;;;;15.33;78.38;101038.81;10189695;28;20046;-66
2021/08/17 16:08:37;;;;;;;23.30;6.53;;;;;;;15.37;77.47;101044.47;10194667;28;20089;-66
2021/08/17 16:13:34;;;;;;;25.27;5.85;;;;;;;15.40;78.02;101041.00;10173227;28;20051;-66
2021/08/17 16:18:30;;;;;;;17.92;6.03;;;;;;;15.34;77.52;101034.94;10195167;28;20050;-66
2021/08/17 16:23:27;;;;;;;25.42;6.80;;;;;;;15.31;78.05;101024.59;10197986;28;20482;-66
2021/08/17 16:28:23;;;;;;;16.80;5.90;;;;;;;15.36;79.57;101038.16;10179155;28;20393;-66
2021/08/17 16:33:21;;;;;;;20.23;7.15;;;;;;;15.39;78.43;101035.84;10197696;28;20500;-66
2021/08/17 16:38:18;;;;;;;18.20;5.93;;;;;;;15.49;78.07;101035.41;10173006;28;20049;-66
2021/08/17 16:43:14;;;;;;;18.65;5.93;;;;;;;16.01;77.10;101034.72;10196818;28;20046;-67
2021/08/17 16:48:11;;;;;;;18.23;5.78;;;;;;;17.21;73.04;101029.44;10164176;28;20096;-67
2021/08/17 16:53:07;;;;;;;14.00;5.22;;;;;;;18.34;69.47;101031.75;10185249;28;20437;-66
2021/08/17 16:58:04;;;;;;;15.70;5.30;;;;;;;18.45;67.17;101032.75;10196577;28;20420;-66
2021/08/17 17:03:01;;;;;;;11.55;4.85;;;;;;;17.84;66.61;101037.75;10171147;28;20038;-66
2021/08/17 17:07:57;;;;;;;12.98;4.90;;;;;;;16.97;68.63;101036.72;10196180;28;20479;-66
2021/08/17 17:12:54;;;;;;;15.93;5.38;;;;;;;16.70;69.49;101030.03;10168319;28;20125;-66
2021/08/17 17:17:51;;;;;;;16.45;5.22;;;;;;;16.54;70.25;101037.47;10195761;28;20141;-67
2021/08/17 17:22:48;;;;;;;12.27;5.03;;;;;;;16.45;71.33;101031.28;10158037;28;20042;-67
2021/08/17 17:27:44;;;;;;;13.07;5.55;;;;;;;16.36;71.33;101034.19;10187726;28;20432;-66
2021/08/17 17:32:41;;;;;;;15.75;5.60;;;;;;;16.25;72.54;101038.59;10194075;28;20045;-66
2021/08/17 17:37:37;;;;;;;15.77;5.63;;;;;;;16.06;70.91;101050.22;10188270;28;20053;-66
2021/08/17 17:42:35;;;;;;;17.40;5.43;;;;;;;16.01;71.44;101045.75;10191675;28;20046;-66
2021/08/17 17:47:32;;;;;;;12.70;5.85;;;;;;;15.99;71.55;101048.06;10185141;28;20117;-67
2021/08/17 17:52:29;;;;;;;16.88;6.07;;;;;;;15.89;71.91;101048.53;10188978;28;20038;-66
2021/08/17 17:57:26;;;;;;;17.95;5.22;;;;;;;15.76;71.98;101050.50;10170949;28;20081;-67
2021/08/17 18:02:22;;;;;;;18.75;5.32;;;;;;;15.71;72.62;101054.28;10186703;28;20216;-66
2021/08/17 18:07:18;;;;;;;17.83;5.45;;;;;;;15.58;72.97;101063.66;10173229;28;20042;-66
2021/08/17 18:12:15;;;;;;;23.50;7.53;;;;;;;15.53;72.51;101053.66;10192496;28;20581;-67
2021/08/17 18:17:12;;;;;;;16.10;5.40;;;;;;;15.46;73.31;101074.69;10198498;28;20447;-67
2021/08/17 18:22:10;;;;;;;13.73;5.22;;;;;;;15.38;72.81;101083.84;10195089;28;20449;-67
2021/08/17 18:27:06;;;;;;;26.73;6.28;;;;;;;15.35;72.49;101083.38;10194880;28;20045;-67
2021/08/17 18:32:07;;;;;;;13.93;5.25;;;;;;;15.35;72.25;101094.38;10189488;28;20047;-66
2021/08/17 18:37:04;;;;;;;14.73;5.18;;;;;;;15.34;72.85;101095.56;10194044;28;20074;-67
2021/08/17 18:42:02;;;;;;;12.20;4.75;;;;;;;15.20;72.92;101099.75;10201255;28;20112;-67
2021/08/17 18:46:59;;;;;;;15.00;5.68;;;;;;;15.17;73.23;101103.19;10201461;28;20050;-66
2021/08/17 18:51:55;;;;;;;24.58;6.50;;;;;;;15.11;73.73;101102.59;10188898;28;20038;-67
2021/08/17 18:56:52;;;;;;;14.18;5.38;;;;;;;15.04;74.02;101099.56;10201144;28;20079;-66
2021/08/17 19:01:48;;;;;;;13.43;5.10;;;;;;;14.99;74.71;101105.28;10186419;28;20042;-67
2021/08/17 19:06:45;;;;;;;16.65;5.50;;;;;;;14.90;75.07;101097.13;10193973;28;20497;-66
2021/08/17 19:11:41;;;;;;;15.75;5.32;;;;;;;14.90;75.89;101094.38;10178103;28;20077;-67
2021/08/17 19:16:38;;;;;;;18.05;6.50;;;;;;;14.87;75.80;101098.59;10186924;28;20527;-67
2021/08/17 19:21:36;;;;;;;13.32;5.75;;;;;;;14.85;76.09;101109.16;10175097;28;20054;-67
2021/08/17 19:26:33;;;;;;;15.60;5.57;;;;;;;14.80;76.26;101090.06;10190887;28;20092;-66
2021/08/17 19:31:29;;;;;;;12.02;5.82;;;;;;;14.74;76.31;101088.69;10200629;28;20077;-66
2021/08/17 19:36:26;;;;;;;17.60;6.70;;;;;;;14.69;76.83;101086.13;10189564;28;20046;-67
2021/08/17 19:41:22;;;;;;;13.02;6.03;;;;;;;14.65;77.22;101080.50;10196009;28;20050;-67
2021/08/17 19:46:19;;;;;;;18.80;6.05;;;;;;;14.65;77.32;101096.22;10186200;28;20065;-66
2021/08/17 19:51:15;;;;;;;19.77;5.80;;;;;;;14.63;77.26;101092.97;10193081;28;20099;-66
2021/08/17 19:56:15;;;;;;;11.98;6.13;;;;;;;14.60;77.53;101097.22;10198427;28;20041;-66
2021/08/17 20:01:11;;;;;;;17.60;6.90;;;;;;;14.58;77.38;101090.44;10181319;28;20069;-67
2021/08/17 20:06:08;;;;;;;13.90;6.18;;;;;;;14.56;77.58;101087.22;10198511;28;20049;-67
2021/08/17 20:11:05;;;;;;;13.02;6.20;;;;;;;14.49;78.45;101094.00;10162159;28;20109;-67
2021/08/17 20:16:01;;;;;;;16.23;6.45;;;;;;;14.49;77.90;101099.53;10194802;28;20046;-66
2021/08/17 20:20:58;;;;;;;19.10;6.68;;;;;;;14.44;78.54;101091.47;10198478;28;20075;-67
2021/08/17 20:25:55;;;;;;;16.52;6.18;;;;;;;14.42;78.38;101093.75;10184053;28;20488;-66
2021/08/17 20:30:52;;;;;;;20.58;7.07;;;;;;;14.39;78.38;101093.59;10197799;28;20776;-66
2021/08/17 20:35:49;;;;;;;17.42;7.45;;;;;;;14.34;78.61;101080.84;10191373;28;20065;-66
2021/08/17 20:40:45;;;;;;;15.80;7.60;;;;;;;14.34;78.65;101091.84;10198352;28;20073;-65
2021/08/17 20:45:42;;;;;;;18.42;6.50;;;;;;;14.33;79.36;101084.75;10184958;28;20086;-66
2021/08/17 20:50:38;;;;;;;16.63;7.53;;;;;;;14.31;79.60;101084.28;10197358;28;20081;-66
2021/08/17 20:55:35;;;;;;;17.67;7.20;;;;;;;14.29;79.78;101078.28;10192179;28;20467;-66
2021/08/17 21:00:33;;;;;;;14.77;7.10;;;;;;;14.25;79.72;101077.34;10184942;28;20186;-65
2021/08/17 21:05:30;;;;;;;14.98;6.18;;;;;;;14.22;79.78;101067.03;10189199;28;20103;-65
2021/08/17 21:10:30;;;;;;;14.77;6.95;;;;;;;14.18;79.91;101068.81;10179412;28;20042;-65
2021/08/17 21:15:27;;;;;;;17.25;7.15;;;;;;;14.16;80.35;101068.38;10187543;28;20104;-66
2021/08/17 21:20:24;;;;;;;17.80;6.90;;;;;;;14.14;79.98;101070.66;10175728;28;20081;-66
2021/08/17 21:25:21;;;;;;;20.25;7.88;;;;;;;14.13;80.01;101069.03;10184769;28;20552;-66
2021/08/17 21:30:19;;;;;;;17.02;8.07;;;;;;;14.13;79.65;101063.53;10174041;28;20569;-65
2021/08/17 21:35:15;;;;;;;15.23;6.90;;;;;;;14.10;79.62;101071.31;10182266;28;20077;-65
2021/08/17 21:40:12;;;;;;;16.20;7.13;;;;;;;14.08;80.29;101073.56;10172636;28;20138;-66
2021/08/17 21:45:09;;;;;;;13.98;6.82;;;;;;;14.05;79.94;101074.25;10179382;28;20096;-66
2021/08/17 21:50:06;;;;;;;15.02;7.78;;;;;;;13.98;80.85;101073.97;10194797;28;20081;-65
2021/08/17 21:55:04;;;;;;;15.30;7.20;;;;;;;13.94;81.26;101067.53;10195368;28;20050;-66
2021/08/17 22:00:14;;;;;;;15.13;6.55;;;;;;;13.94;80.90;101067.53;10184990;28;20128;-66
2021/08/17 22:05:10;;;;;;;15.65;6.82;;;;;;;13.91;81.24;101062.69;10194448;28;20050;-65
2021/08/17 22:10:07;;;;;;;18.33;7.55;;;;;;;13.87;81.56;101067.22;10180732;28;20088;-66
2021/08/17 22:15:04;;;;;;;15.55;7.45;;;;;;;13.85;82.00;101069.50;10194671;28;20500;-66
2021/08/17 22:20:02;;;;;;;13.15;6.05;;;;;;;13.84;82.31;101065.16;10175467;28;20073;-66
2021/08/17 22:25:01;;;;;;;17.85;7.35;;;;;;;13.83;82.47;101071.78;10186584;28;20050;-65
2021/08/17 22:29:58;;;;;;;15.80;7.03;;;;;;;13.81;82.84;101065.84;10155118;28;20053;-65